sensor_id;sensor_type;location;lat;lon;timestamp;P1;durP1;ratioP1;P2;durP2;ratioP2
11121;SDS011;5615;49.304;10.576;2024-03-22T00:01:12;29.03;;;19.77;;
11121;SDS011;5615;49.304;10.576;2024-03-22T00:03:38;30.03;;;19.30;;
11121;SDS011;5615;49.304;10.576;2024-03-22T00:06:04;27.10;;;19.20;;
11121;SDS011;5615;49.304;10.576;2024-03-22T00:08:30;26.50;;;19.23;;
11121;SDS011;5615;49.304;10.576;2024-03-22T00:10:57;28.47;;;19.47;;
11121;SDS011;5615;49.304;10.576;2024-03-22T00:13:24;27.80;;;20.40;;
11121;SDS011;5615;49.304;10.576;2024-03-22T00:15:50;28.53;;;19.80;;
11121;SDS011;5615;49.304;10.576;2024-03-22T00:18:16;27.87;;;20.03;;
11121;SDS011;5615;49.304;10.576;2024-03-22T00:20:43;27.83;;;18.97;;
11121;SDS011;5615;49.304;10.576;2024-03-22T00:23:08;28.07;;;20.20;;
11121;SDS011;5615;49.304;10.576;2024-03-22T00:25:35;29.00;;;19.57;;
11121;SDS011;5615;49.304;10.576;2024-03-22T00:28:00;31.43;;;20.87;;
11121;SDS011;5615;49.304;10.576;2024-03-22T00:30:28;28.60;;;19.57;;
11121;SDS011;5615;49.304;10.576;2024-03-22T00:32:54;36.57;;;21.80;;
11121;SDS011;5615;49.304;10.576;2024-03-22T00:35:21;32.83;;;18.77;;
11121;SDS011;5615;49.304;10.576;2024-03-22T00:37:47;30.57;;;20.70;;
11121;SDS011;5615;49.304;10.576;2024-03-22T00:40:14;28.00;;;20.80;;
11121;SDS011;5615;49.304;10.576;2024-03-22T00:42:39;29.57;;;21.20;;
11121;SDS011;5615;49.304;10.576;2024-03-22T00:45:06;29.13;;;20.53;;
11121;SDS011;5615;49.304;10.576;2024-03-22T00:47:34;31.03;;;21.13;;
11121;SDS011;5615;49.304;10.576;2024-03-22T00:50:00;34.90;;;22.20;;
11121;SDS011;5615;49.304;10.576;2024-03-22T00:52:26;34.23;;;22.90;;
11121;SDS011;5615;49.304;10.576;2024-03-22T00:54:53;32.93;;;21.83;;
11121;SDS011;5615;49.304;10.576;2024-03-22T00:57:19;34.67;;;22.40;;
11121;SDS011;5615;49.304;10.576;2024-03-22T00:59:48;31.57;;;21.90;;
11121;SDS011;5615;49.304;10.576;2024-03-22T01:02:18;33.53;;;21.23;;
11121;SDS011;5615;49.304;10.576;2024-03-22T01:04:46;32.80;;;21.27;;
11121;SDS011;5615;49.304;10.576;2024-03-22T01:07:12;31.83;;;21.33;;
11121;SDS011;5615;49.304;10.576;2024-03-22T01:09:48;34.17;;;22.57;;
11121;SDS011;5615;49.304;10.576;2024-03-22T01:15:08;37.57;;;24.77;;
11121;SDS011;5615;49.304;10.576;2024-03-22T01:17:36;35.53;;;22.97;;
11121;SDS011;5615;49.304;10.576;2024-03-22T01:20:04;35.57;;;23.33;;
11121;SDS011;5615;49.304;10.576;2024-03-22T01:22:31;37.37;;;24.57;;
11121;SDS011;5615;49.304;10.576;2024-03-22T01:24:57;36.10;;;23.33;;
11121;SDS011;5615;49.304;10.576;2024-03-22T01:27:24;42.10;;;23.97;;
11121;SDS011;5615;49.304;10.576;2024-03-22T01:29:50;39.43;;;23.83;;
11121;SDS011;5615;49.304;10.576;2024-03-22T01:32:24;36.00;;;23.03;;
11121;SDS011;5615;49.304;10.576;2024-03-22T01:34:49;38.17;;;23.87;;
11121;SDS011;5615;49.304;10.576;2024-03-22T01:37:18;36.40;;;23.43;;
11121;SDS011;5615;49.304;10.576;2024-03-22T02:10:50;33.17;;;21.60;;
11121;SDS011;5615;49.304;10.576;2024-03-22T02:13:17;36.07;;;22.70;;
11121;SDS011;5615;49.304;10.576;2024-03-22T02:15:44;37.57;;;23.03;;
11121;SDS011;5615;49.304;10.576;2024-03-22T02:18:13;33.90;;;21.77;;
11121;SDS011;5615;49.304;10.576;2024-03-22T02:20:41;37.67;;;22.53;;
11121;SDS011;5615;49.304;10.576;2024-03-22T02:23:08;32.93;;;22.53;;
11121;SDS011;5615;49.304;10.576;2024-03-22T02:25:38;40.50;;;22.60;;
11121;SDS011;5615;49.304;10.576;2024-03-22T02:28:12;37.80;;;22.80;;
11121;SDS011;5615;49.304;10.576;2024-03-22T02:30:38;42.03;;;23.03;;
11121;SDS011;5615;49.304;10.576;2024-03-22T02:33:06;44.60;;;29.40;;
11121;SDS011;5615;49.304;10.576;2024-03-22T02:35:33;61.17;;;40.50;;
11121;SDS011;5615;49.304;10.576;2024-03-22T02:38:00;61.23;;;41.60;;
11121;SDS011;5615;49.304;10.576;2024-03-22T02:40:26;52.57;;;34.33;;
11121;SDS011;5615;49.304;10.576;2024-03-22T02:43:04;51.53;;;30.40;;
11121;SDS011;5615;49.304;10.576;2024-03-22T02:45:30;49.83;;;29.47;;
11121;SDS011;5615;49.304;10.576;2024-03-22T02:47:58;48.77;;;27.83;;
11121;SDS011;5615;49.304;10.576;2024-03-22T02:50:26;45.73;;;26.73;;
11121;SDS011;5615;49.304;10.576;2024-03-22T02:52:55;40.63;;;23.90;;
11121;SDS011;5615;49.304;10.576;2024-03-22T02:55:23;44.53;;;26.37;;
11121;SDS011;5615;49.304;10.576;2024-03-22T02:57:50;46.17;;;27.83;;
11121;SDS011;5615;49.304;10.576;2024-03-22T03:00:18;48.03;;;27.47;;
11121;SDS011;5615;49.304;10.576;2024-03-22T03:02:46;47.57;;;26.97;;
11121;SDS011;5615;49.304;10.576;2024-03-22T03:05:14;40.93;;;25.10;;
11121;SDS011;5615;49.304;10.576;2024-03-22T03:08:00;47.70;;;24.70;;
11121;SDS011;5615;49.304;10.576;2024-03-22T03:10:29;42.57;;;24.13;;
11121;SDS011;5615;49.304;10.576;2024-03-22T03:12:56;42.70;;;24.90;;
11121;SDS011;5615;49.304;10.576;2024-03-22T03:15:25;44.27;;;24.50;;
11121;SDS011;5615;49.304;10.576;2024-03-22T03:17:51;42.27;;;24.83;;
11121;SDS011;5615;49.304;10.576;2024-03-22T03:20:18;41.10;;;24.40;;
11121;SDS011;5615;49.304;10.576;2024-03-22T03:22:44;43.37;;;24.60;;
11121;SDS011;5615;49.304;10.576;2024-03-22T03:25:14;44.00;;;24.20;;
11121;SDS011;5615;49.304;10.576;2024-03-22T03:27:41;47.60;;;23.27;;
11121;SDS011;5615;49.304;10.576;2024-03-22T03:30:08;41.80;;;23.10;;
11121;SDS011;5615;49.304;10.576;2024-03-22T03:35:45;41.97;;;24.10;;
11121;SDS011;5615;49.304;10.576;2024-03-22T03:38:12;40.83;;;23.40;;
11121;SDS011;5615;49.304;10.576;2024-03-22T03:44:12;42.87;;;24.53;;
11121;SDS011;5615;49.304;10.576;2024-03-22T03:46:42;42.90;;;24.70;;
11121;SDS011;5615;49.304;10.576;2024-03-22T03:49:10;45.13;;;24.97;;
11121;SDS011;5615;49.304;10.576;2024-03-22T03:51:38;39.17;;;22.80;;
11121;SDS011;5615;49.304;10.576;2024-03-22T03:54:05;39.60;;;22.60;;
11121;SDS011;5615;49.304;10.576;2024-03-22T03:56:32;41.17;;;24.33;;
11121;SDS011;5615;49.304;10.576;2024-03-22T03:59:01;38.60;;;22.80;;
11121;SDS011;5615;49.304;10.576;2024-03-22T04:01:30;39.17;;;23.23;;
11121;SDS011;5615;49.304;10.576;2024-03-22T04:03:56;43.97;;;22.70;;
11121;SDS011;5615;49.304;10.576;2024-03-22T04:06:26;42.97;;;24.57;;
11121;SDS011;5615;49.304;10.576;2024-03-22T04:08:53;45.67;;;24.93;;
11121;SDS011;5615;49.304;10.576;2024-03-22T04:11:20;48.23;;;25.60;;
11121;SDS011;5615;49.304;10.576;2024-03-22T04:13:49;47.97;;;25.67;;
11121;SDS011;5615;49.304;10.576;2024-03-22T04:16:17;50.40;;;25.53;;
11121;SDS011;5615;49.304;10.576;2024-03-22T04:18:44;47.23;;;26.37;;
11121;SDS011;5615;49.304;10.576;2024-03-22T04:21:11;45.97;;;25.83;;
11121;SDS011;5615;49.304;10.576;2024-03-22T04:23:40;49.90;;;27.37;;
11121;SDS011;5615;49.304;10.576;2024-03-22T04:26:14;56.50;;;30.97;;
11121;SDS011;5615;49.304;10.576;2024-03-22T04:28:42;55.00;;;28.43;;
11121;SDS011;5615;49.304;10.576;2024-03-22T04:31:11;57.20;;;29.83;;
11121;SDS011;5615;49.304;10.576;2024-03-22T04:33:37;59.63;;;31.80;;
11121;SDS011;5615;49.304;10.576;2024-03-22T04:36:05;55.40;;;31.17;;
11121;SDS011;5615;49.304;10.576;2024-03-22T04:38:35;53.33;;;30.20;;
11121;SDS011;5615;49.304;10.576;2024-03-22T04:41:06;56.93;;;32.10;;
11121;SDS011;5615;49.304;10.576;2024-03-22T04:43:38;54.37;;;29.97;;
11121;SDS011;5615;49.304;10.576;2024-03-22T04:46:08;51.37;;;29.50;;
11121;SDS011;5615;49.304;10.576;2024-03-22T04:48:43;56.90;;;29.63;;
11121;SDS011;5615;49.304;10.576;2024-03-22T04:51:11;52.13;;;28.47;;
11121;SDS011;5615;49.304;10.576;2024-03-22T04:53:41;53.23;;;26.93;;
11121;SDS011;5615;49.304;10.576;2024-03-22T04:56:10;54.03;;;28.77;;
11121;SDS011;5615;49.304;10.576;2024-03-22T04:58:38;50.53;;;27.40;;
11121;SDS011;5615;49.304;10.576;2024-03-22T05:01:04;50.97;;;26.80;;
11121;SDS011;5615;49.304;10.576;2024-03-22T05:03:33;51.40;;;27.83;;
11121;SDS011;5615;49.304;10.576;2024-03-22T05:06:01;49.47;;;28.03;;
11121;SDS011;5615;49.304;10.576;2024-03-22T05:08:31;47.63;;;25.97;;
11121;SDS011;5615;49.304;10.576;2024-03-22T05:10:58;48.07;;;26.67;;
11121;SDS011;5615;49.304;10.576;2024-03-22T05:13:27;52.57;;;27.47;;
11121;SDS011;5615;49.304;10.576;2024-03-22T05:15:58;55.10;;;26.97;;
11121;SDS011;5615;49.304;10.576;2024-03-22T05:18:28;50.63;;;27.23;;
11121;SDS011;5615;49.304;10.576;2024-03-22T05:20:56;54.40;;;29.43;;
11121;SDS011;5615;49.304;10.576;2024-03-22T05:23:23;55.20;;;28.27;;
11121;SDS011;5615;49.304;10.576;2024-03-22T05:25:51;52.00;;;26.77;;
11121;SDS011;5615;49.304;10.576;2024-03-22T05:28:22;50.13;;;27.33;;
11121;SDS011;5615;49.304;10.576;2024-03-22T05:30:50;52.60;;;28.10;;
11121;SDS011;5615;49.304;10.576;2024-03-22T05:33:17;50.63;;;27.93;;
11121;SDS011;5615;49.304;10.576;2024-03-22T05:35:44;55.20;;;29.47;;
11121;SDS011;5615;49.304;10.576;2024-03-22T05:38:12;52.97;;;28.20;;
11121;SDS011;5615;49.304;10.576;2024-03-22T05:40:38;51.10;;;26.87;;
11121;SDS011;5615;49.304;10.576;2024-03-22T05:43:05;47.03;;;26.47;;
11121;SDS011;5615;49.304;10.576;2024-03-22T05:45:32;47.93;;;24.93;;
11121;SDS011;5615;49.304;10.576;2024-03-22T05:48:03;52.20;;;26.50;;
11121;SDS011;5615;49.304;10.576;2024-03-22T05:50:30;49.90;;;27.43;;
11121;SDS011;5615;49.304;10.576;2024-03-22T05:52:59;52.80;;;27.40;;
11121;SDS011;5615;49.304;10.576;2024-03-22T05:55:26;53.40;;;28.20;;
11121;SDS011;5615;49.304;10.576;2024-03-22T05:57:56;53.53;;;28.67;;
11121;SDS011;5615;49.304;10.576;2024-03-22T06:00:22;56.73;;;29.17;;
11121;SDS011;5615;49.304;10.576;2024-03-22T06:02:50;54.97;;;29.23;;
11121;SDS011;5615;49.304;10.576;2024-03-22T06:05:18;56.77;;;28.70;;
11121;SDS011;5615;49.304;10.576;2024-03-22T06:07:45;50.43;;;28.27;;
11121;SDS011;5615;49.304;10.576;2024-03-22T06:10:12;52.80;;;29.37;;
11121;SDS011;5615;49.304;10.576;2024-03-22T06:12:40;61.20;;;29.90;;
11121;SDS011;5615;49.304;10.576;2024-03-22T06:17:43;53.37;;;29.87;;
11121;SDS011;5615;49.304;10.576;2024-03-22T06:20:11;64.27;;;31.20;;
11121;SDS011;5615;49.304;10.576;2024-03-22T06:22:40;60.83;;;30.57;;
11121;SDS011;5615;49.304;10.576;2024-03-22T06:25:07;57.30;;;30.43;;
11121;SDS011;5615;49.304;10.576;2024-03-22T06:27:33;54.50;;;29.40;;
11121;SDS011;5615;49.304;10.576;2024-03-22T06:30:01;53.27;;;29.73;;
11121;SDS011;5615;49.304;10.576;2024-03-22T06:32:28;55.00;;;31.20;;
11121;SDS011;5615;49.304;10.576;2024-03-22T06:34:56;55.43;;;30.00;;
11121;SDS011;5615;49.304;10.576;2024-03-22T06:37:23;56.63;;;31.63;;
11121;SDS011;5615;49.304;10.576;2024-03-22T06:39:53;55.37;;;31.33;;
11121;SDS011;5615;49.304;10.576;2024-03-22T06:45:25;55.13;;;30.40;;
11121;SDS011;5615;49.304;10.576;2024-03-22T06:47:52;50.83;;;30.27;;
11121;SDS011;5615;49.304;10.576;2024-03-22T06:50:37;48.60;;;28.03;;
11121;SDS011;5615;49.304;10.576;2024-03-22T06:53:07;42.43;;;25.73;;
11121;SDS011;5615;49.304;10.576;2024-03-22T06:55:36;39.87;;;25.00;;
11121;SDS011;5615;49.304;10.576;2024-03-22T06:58:02;40.90;;;26.83;;
11121;SDS011;5615;49.304;10.576;2024-03-22T07:00:28;41.57;;;24.47;;
11121;SDS011;5615;49.304;10.576;2024-03-22T07:02:55;37.60;;;23.50;;
11121;SDS011;5615;49.304;10.576;2024-03-22T07:05:22;30.33;;;21.67;;
11121;SDS011;5615;49.304;10.576;2024-03-22T07:07:48;28.87;;;19.73;;
11121;SDS011;5615;49.304;10.576;2024-03-22T07:10:15;30.40;;;20.53;;
11121;SDS011;5615;49.304;10.576;2024-03-22T07:12:43;27.10;;;20.77;;
11121;SDS011;5615;49.304;10.576;2024-03-22T07:15:09;25.03;;;19.77;;
11121;SDS011;5615;49.304;10.576;2024-03-22T07:17:35;25.40;;;18.93;;
11121;SDS011;5615;49.304;10.576;2024-03-22T07:20:02;25.93;;;17.97;;
11121;SDS011;5615;49.304;10.576;2024-03-22T07:22:29;26.87;;;17.53;;
11121;SDS011;5615;49.304;10.576;2024-03-22T07:24:56;23.00;;;16.60;;
11121;SDS011;5615;49.304;10.576;2024-03-22T07:27:21;24.43;;;18.40;;
11121;SDS011;5615;49.304;10.576;2024-03-22T07:29:50;21.37;;;17.00;;
11121;SDS011;5615;49.304;10.576;2024-03-22T07:32:15;21.27;;;16.30;;
11121;SDS011;5615;49.304;10.576;2024-03-22T07:34:45;20.57;;;16.53;;
11121;SDS011;5615;49.304;10.576;2024-03-22T07:37:11;21.93;;;16.90;;
11121;SDS011;5615;49.304;10.576;2024-03-22T07:39:38;22.07;;;17.07;;
11121;SDS011;5615;49.304;10.576;2024-03-22T07:42:03;22.30;;;17.33;;
11121;SDS011;5615;49.304;10.576;2024-03-22T07:44:30;25.43;;;17.90;;
11121;SDS011;5615;49.304;10.576;2024-03-22T07:46:57;20.27;;;16.07;;
11121;SDS011;5615;49.304;10.576;2024-03-22T07:49:24;21.53;;;16.73;;
11121;SDS011;5615;49.304;10.576;2024-03-22T07:51:49;23.13;;;16.70;;
11121;SDS011;5615;49.304;10.576;2024-03-22T07:54:18;25.40;;;16.10;;
11121;SDS011;5615;49.304;10.576;2024-03-22T07:56:43;19.63;;;15.80;;
11121;SDS011;5615;49.304;10.576;2024-03-22T07:59:10;19.97;;;15.13;;
11121;SDS011;5615;49.304;10.576;2024-03-22T08:01:37;21.93;;;16.10;;
11121;SDS011;5615;49.304;10.576;2024-03-22T08:04:04;19.93;;;15.87;;
11121;SDS011;5615;49.304;10.576;2024-03-22T08:06:31;20.63;;;16.20;;
11121;SDS011;5615;49.304;10.576;2024-03-22T08:08:56;20.03;;;15.80;;
11121;SDS011;5615;49.304;10.576;2024-03-22T08:11:23;18.80;;;16.13;;
11121;SDS011;5615;49.304;10.576;2024-03-22T08:13:49;21.47;;;17.10;;
11121;SDS011;5615;49.304;10.576;2024-03-22T08:16:15;21.80;;;17.23;;
11121;SDS011;5615;49.304;10.576;2024-03-22T08:18:41;24.50;;;17.53;;
11121;SDS011;5615;49.304;10.576;2024-03-22T08:21:09;21.23;;;16.20;;
11121;SDS011;5615;49.304;10.576;2024-03-22T08:23:35;21.47;;;16.57;;
11121;SDS011;5615;49.304;10.576;2024-03-22T08:26:01;19.83;;;15.77;;
11121;SDS011;5615;49.304;10.576;2024-03-22T08:28:27;19.30;;;15.93;;
11121;SDS011;5615;49.304;10.576;2024-03-22T08:30:54;19.97;;;15.97;;
11121;SDS011;5615;49.304;10.576;2024-03-22T08:33:20;20.97;;;16.37;;
11121;SDS011;5615;49.304;10.576;2024-03-22T08:35:47;19.87;;;15.40;;
11121;SDS011;5615;49.304;10.576;2024-03-22T08:38:14;22.40;;;16.63;;
11121;SDS011;5615;49.304;10.576;2024-03-22T08:40:43;20.87;;;16.17;;
11121;SDS011;5615;49.304;10.576;2024-03-22T08:43:09;19.53;;;16.07;;
11121;SDS011;5615;49.304;10.576;2024-03-22T08:45:35;19.77;;;17.10;;
11121;SDS011;5615;49.304;10.576;2024-03-22T08:48:01;18.43;;;14.50;;
11121;SDS011;5615;49.304;10.576;2024-03-22T08:50:28;18.73;;;15.30;;
11121;SDS011;5615;49.304;10.576;2024-03-22T08:52:54;19.30;;;15.43;;
11121;SDS011;5615;49.304;10.576;2024-03-22T08:55:22;18.87;;;15.23;;
11121;SDS011;5615;49.304;10.576;2024-03-22T08:57:47;21.37;;;15.00;;
11121;SDS011;5615;49.304;10.576;2024-03-22T09:00:14;16.17;;;14.37;;
11121;SDS011;5615;49.304;10.576;2024-03-22T09:02:40;17.63;;;14.60;;
11121;SDS011;5615;49.304;10.576;2024-03-22T09:05:07;17.23;;;14.03;;
11121;SDS011;5615;49.304;10.576;2024-03-22T09:07:33;15.80;;;13.07;;
11121;SDS011;5615;49.304;10.576;2024-03-22T09:10:00;15.43;;;13.60;;
11121;SDS011;5615;49.304;10.576;2024-03-22T09:12:27;16.73;;;13.43;;
11121;SDS011;5615;49.304;10.576;2024-03-22T09:14:53;16.00;;;12.90;;
11121;SDS011;5615;49.304;10.576;2024-03-22T09:17:19;16.87;;;12.43;;
11121;SDS011;5615;49.304;10.576;2024-03-22T09:19:46;14.20;;;12.43;;
11121;SDS011;5615;49.304;10.576;2024-03-22T09:22:12;15.07;;;12.73;;
11121;SDS011;5615;49.304;10.576;2024-03-22T09:24:40;15.17;;;12.70;;
11121;SDS011;5615;49.304;10.576;2024-03-22T09:27:05;18.57;;;13.33;;
11121;SDS011;5615;49.304;10.576;2024-03-22T09:29:35;13.75;;;12.35;;
11121;SDS011;5615;49.304;10.576;2024-03-22T09:32:01;15.13;;;12.03;;
11121;SDS011;5615;49.304;10.576;2024-03-22T09:34:28;13.68;;;11.55;;
11121;SDS011;5615;49.304;10.576;2024-03-22T09:36:54;12.20;;;10.52;;
11121;SDS011;5615;49.304;10.576;2024-03-22T09:39:21;11.30;;;9.63;;
11121;SDS011;5615;49.304;10.576;2024-03-22T09:41:47;9.70;;;8.77;;
11121;SDS011;5615;49.304;10.576;2024-03-22T09:44:17;13.30;;;8.40;;
11121;SDS011;5615;49.304;10.576;2024-03-22T09:46:45;10.15;;;8.90;;
11121;SDS011;5615;49.304;10.576;2024-03-22T09:49:13;12.00;;;9.52;;
11121;SDS011;5615;49.304;10.576;2024-03-22T09:51:39;11.38;;;9.35;;
11121;SDS011;5615;49.304;10.576;2024-03-22T09:54:08;10.77;;;9.20;;
11121;SDS011;5615;49.304;10.576;2024-03-22T09:56:34;10.60;;;9.15;;
11121;SDS011;5615;49.304;10.576;2024-03-22T09:59:04;10.50;;;9.40;;
11121;SDS011;5615;49.304;10.576;2024-03-22T10:01:30;12.18;;;9.63;;
11121;SDS011;5615;49.304;10.576;2024-03-22T10:04:00;10.93;;;9.77;;
11121;SDS011;5615;49.304;10.576;2024-03-22T10:06:26;12.02;;;8.98;;
11121;SDS011;5615;49.304;10.576;2024-03-22T10:08:53;10.02;;;9.00;;
11121;SDS011;5615;49.304;10.576;2024-03-22T10:11:19;12.27;;;8.73;;
11121;SDS011;5615;49.304;10.576;2024-03-22T10:13:46;9.63;;;8.60;;
11121;SDS011;5615;49.304;10.576;2024-03-22T10:16:16;10.70;;;9.35;;
11121;SDS011;5615;49.304;10.576;2024-03-22T10:18:42;9.43;;;8.52;;
11121;SDS011;5615;49.304;10.576;2024-03-22T10:21:10;10.77;;;9.25;;
11121;SDS011;5615;49.304;10.576;2024-03-22T10:23:37;10.82;;;9.35;;
11121;SDS011;5615;49.304;10.576;2024-03-22T10:26:02;12.48;;;9.23;;
11121;SDS011;5615;49.304;10.576;2024-03-22T10:28:30;10.85;;;9.75;;
11121;SDS011;5615;49.304;10.576;2024-03-22T10:30:55;10.77;;;9.52;;
11121;SDS011;5615;49.304;10.576;2024-03-22T10:33:22;10.65;;;9.57;;
11121;SDS011;5615;49.304;10.576;2024-03-22T10:35:49;10.98;;;9.32;;
11121;SDS011;5615;49.304;10.576;2024-03-22T10:38:20;12.80;;;8.90;;
11121;SDS011;5615;49.304;10.576;2024-03-22T10:40:46;10.52;;;9.48;;
11121;SDS011;5615;49.304;10.576;2024-03-22T10:43:13;10.63;;;9.50;;
11121;SDS011;5615;49.304;10.576;2024-03-22T10:45:40;10.68;;;9.57;;
11121;SDS011;5615;49.304;10.576;2024-03-22T10:48:08;11.70;;;9.38;;
11121;SDS011;5615;49.304;10.576;2024-03-22T10:50:36;10.10;;;9.07;;
11121;SDS011;5615;49.304;10.576;2024-03-22T10:53:06;10.20;;;9.00;;
11121;SDS011;5615;49.304;10.576;2024-03-22T10:55:37;9.88;;;8.65;;
11121;SDS011;5615;49.304;10.576;2024-03-22T10:58:08;9.93;;;8.27;;
11121;SDS011;5615;49.304;10.576;2024-03-22T11:00:41;8.95;;;8.05;;
11121;SDS011;5615;49.304;10.576;2024-03-22T11:03:09;9.68;;;8.48;;
11121;SDS011;5615;49.304;10.576;2024-03-22T11:05:44;8.32;;;7.50;;
11121;SDS011;5615;49.304;10.576;2024-03-22T11:08:11;9.35;;;7.68;;
11121;SDS011;5615;49.304;10.576;2024-03-22T11:10:38;8.52;;;7.63;;
11121;SDS011;5615;49.304;10.576;2024-03-22T11:13:06;8.15;;;7.35;;
11121;SDS011;5615;49.304;10.576;2024-03-22T11:15:32;9.60;;;7.18;;
11121;SDS011;5615;49.304;10.576;2024-03-22T11:18:00;8.10;;;7.30;;
11121;SDS011;5615;49.304;10.576;2024-03-22T11:20:26;8.00;;;7.28;;
11121;SDS011;5615;49.304;10.576;2024-03-22T11:22:53;8.77;;;7.82;;
11121;SDS011;5615;49.304;10.576;2024-03-22T11:25:19;8.32;;;7.53;;
11121;SDS011;5615;49.304;10.576;2024-03-22T11:27:47;9.30;;;7.43;;
11121;SDS011;5615;49.304;10.576;2024-03-22T11:30:14;7.40;;;6.70;;
11121;SDS011;5615;49.304;10.576;2024-03-22T11:32:41;7.43;;;6.35;;
11121;SDS011;5615;49.304;10.576;2024-03-22T11:35:10;7.15;;;6.53;;
11121;SDS011;5615;49.304;10.576;2024-03-22T11:37:38;8.52;;;6.70;;
11121;SDS011;5615;49.304;10.576;2024-03-22T11:40:04;10.90;;;6.68;;
11121;SDS011;5615;49.304;10.576;2024-03-22T11:42:31;7.18;;;6.47;;
11121;SDS011;5615;49.304;10.576;2024-03-22T11:44:59;6.88;;;6.15;;
11121;SDS011;5615;49.304;10.576;2024-03-22T11:47:26;7.38;;;5.93;;
11121;SDS011;5615;49.304;10.576;2024-03-22T11:49:52;6.30;;;5.28;;
11121;SDS011;5615;49.304;10.576;2024-03-22T11:52:23;5.15;;;4.65;;
11121;SDS011;5615;49.304;10.576;2024-03-22T11:54:50;5.82;;;4.70;;
11121;SDS011;5615;49.304;10.576;2024-03-22T11:57:18;7.38;;;4.85;;
11121;SDS011;5615;49.304;10.576;2024-03-22T11:59:45;6.05;;;5.47;;
11121;SDS011;5615;49.304;10.576;2024-03-22T12:02:13;6.50;;;4.68;;
11121;SDS011;5615;49.304;10.576;2024-03-22T12:04:40;6.18;;;5.57;;
11121;SDS011;5615;49.304;10.576;2024-03-22T12:07:09;6.70;;;5.97;;
11121;SDS011;5615;49.304;10.576;2024-03-22T12:09:35;7.00;;;5.75;;
11121;SDS011;5615;49.304;10.576;2024-03-22T12:12:03;6.88;;;5.68;;
11121;SDS011;5615;49.304;10.576;2024-03-22T12:14:29;6.07;;;5.57;;
11121;SDS011;5615;49.304;10.576;2024-03-22T12:16:56;6.25;;;5.30;;
11121;SDS011;5615;49.304;10.576;2024-03-22T12:19:23;6.10;;;5.40;;
11121;SDS011;5615;49.304;10.576;2024-03-22T12:21:49;6.43;;;5.82;;
11121;SDS011;5615;49.304;10.576;2024-03-22T12:24:15;7.53;;;6.15;;
11121;SDS011;5615;49.304;10.576;2024-03-22T12:26:42;4.82;;;4.43;;
11121;SDS011;5615;49.304;10.576;2024-03-22T12:29:08;5.15;;;3.85;;
11121;SDS011;5615;49.304;10.576;2024-03-22T12:31:35;7.43;;;4.80;;
11121;SDS011;5615;49.304;10.576;2024-03-22T12:34:02;5.50;;;4.60;;
11121;SDS011;5615;49.304;10.576;2024-03-22T12:36:30;6.32;;;5.50;;
11121;SDS011;5615;49.304;10.576;2024-03-22T12:38:56;6.95;;;4.88;;
11121;SDS011;5615;49.304;10.576;2024-03-22T12:41:23;5.30;;;4.80;;
11121;SDS011;5615;49.304;10.576;2024-03-22T12:43:49;5.05;;;4.40;;
11121;SDS011;5615;49.304;10.576;2024-03-22T12:46:16;4.50;;;3.97;;
11121;SDS011;5615;49.304;10.576;2024-03-22T12:48:41;4.45;;;4.05;;
11121;SDS011;5615;49.304;10.576;2024-03-22T12:51:08;4.82;;;3.95;;
11121;SDS011;5615;49.304;10.576;2024-03-22T12:53:35;7.95;;;4.93;;
11121;SDS011;5615;49.304;10.576;2024-03-22T12:56:02;6.03;;;4.40;;
11121;SDS011;5615;49.304;10.576;2024-03-22T12:58:29;5.15;;;4.32;;
11121;SDS011;5615;49.304;10.576;2024-03-22T13:00:56;5.50;;;4.97;;
11121;SDS011;5615;49.304;10.576;2024-03-22T13:03:22;5.50;;;5.00;;
11121;SDS011;5615;49.304;10.576;2024-03-22T13:05:48;4.95;;;4.13;;
11121;SDS011;5615;49.304;10.576;2024-03-22T13:08:14;4.82;;;4.25;;
11121;SDS011;5615;49.304;10.576;2024-03-22T13:10:43;5.40;;;4.90;;
11121;SDS011;5615;49.304;10.576;2024-03-22T13:13:09;6.55;;;4.68;;
11121;SDS011;5615;49.304;10.576;2024-03-22T13:15:36;6.63;;;5.28;;
11121;SDS011;5615;49.304;10.576;2024-03-22T13:18:02;8.68;;;5.57;;
11121;SDS011;5615;49.304;10.576;2024-03-22T13:20:29;6.15;;;5.47;;
11121;SDS011;5615;49.304;10.576;2024-03-22T13:22:55;6.22;;;4.90;;
11121;SDS011;5615;49.304;10.576;2024-03-22T13:25:22;7.88;;;5.22;;
11121;SDS011;5615;49.304;10.576;2024-03-22T13:27:49;6.75;;;4.97;;
11121;SDS011;5615;49.304;10.576;2024-03-22T13:30:15;6.65;;;5.18;;
11121;SDS011;5615;49.304;10.576;2024-03-22T13:32:41;7.25;;;5.20;;
11121;SDS011;5615;49.304;10.576;2024-03-22T13:35:08;6.88;;;5.68;;
11121;SDS011;5615;49.304;10.576;2024-03-22T13:37:34;6.93;;;5.28;;
11121;SDS011;5615;49.304;10.576;2024-03-22T13:40:00;6.13;;;5.53;;
11121;SDS011;5615;49.304;10.576;2024-03-22T13:42:26;6.22;;;4.93;;
11121;SDS011;5615;49.304;10.576;2024-03-22T13:44:55;6.55;;;5.72;;
11121;SDS011;5615;49.304;10.576;2024-03-22T13:47:23;7.05;;;5.65;;
11121;SDS011;5615;49.304;10.576;2024-03-22T13:49:50;5.68;;;5.18;;
11121;SDS011;5615;49.304;10.576;2024-03-22T13:52:16;5.50;;;3.97;;
11121;SDS011;5615;49.304;10.576;2024-03-22T13:54:43;5.47;;;4.13;;
11121;SDS011;5615;49.304;10.576;2024-03-22T13:57:09;4.28;;;3.88;;
11121;SDS011;5615;49.304;10.576;2024-03-22T13:59:36;5.60;;;4.70;;
11121;SDS011;5615;49.304;10.576;2024-03-22T14:02:03;7.03;;;5.40;;
11121;SDS011;5615;49.304;10.576;2024-03-22T14:04:30;8.45;;;5.30;;
11121;SDS011;5615;49.304;10.576;2024-03-22T14:06:56;6.18;;;5.20;;
11121;SDS011;5615;49.304;10.576;2024-03-22T14:09:22;5.78;;;5.13;;
11121;SDS011;5615;49.304;10.576;2024-03-22T14:11:48;5.78;;;5.13;;
11121;SDS011;5615;49.304;10.576;2024-03-22T14:14:15;6.28;;;5.68;;
11121;SDS011;5615;49.304;10.576;2024-03-22T14:16:40;6.72;;;5.28;;
11121;SDS011;5615;49.304;10.576;2024-03-22T14:19:09;4.88;;;4.38;;
11121;SDS011;5615;49.304;10.576;2024-03-22T14:21:34;4.32;;;3.92;;
11121;SDS011;5615;49.304;10.576;2024-03-22T14:24:04;4.40;;;4.00;;
11121;SDS011;5615;49.304;10.576;2024-03-22T14:26:29;7.43;;;4.55;;
11121;SDS011;5615;49.304;10.576;2024-03-22T14:28:56;7.10;;;4.10;;
11121;SDS011;5615;49.304;10.576;2024-03-22T14:31:22;5.72;;;4.13;;
11121;SDS011;5615;49.304;10.576;2024-03-22T14:33:48;8.30;;;3.67;;
11121;SDS011;5615;49.304;10.576;2024-03-22T14:36:15;5.13;;;3.40;;
11121;SDS011;5615;49.304;10.576;2024-03-22T14:38:42;5.78;;;2.92;;
11121;SDS011;5615;49.304;10.576;2024-03-22T14:41:08;3.05;;;2.80;;
11121;SDS011;5615;49.304;10.576;2024-03-22T14:43:34;3.80;;;3.08;;
11121;SDS011;5615;49.304;10.576;2024-03-22T14:46:00;3.58;;;3.25;;
11121;SDS011;5615;49.304;10.576;2024-03-22T14:48:28;5.45;;;4.63;;
11121;SDS011;5615;49.304;10.576;2024-03-22T14:50:54;5.63;;;4.50;;
11121;SDS011;5615;49.304;10.576;2024-03-22T14:53:22;7.22;;;4.22;;
11121;SDS011;5615;49.304;10.576;2024-03-22T14:55:51;5.65;;;4.22;;
11121;SDS011;5615;49.304;10.576;2024-03-22T14:58:19;5.60;;;4.80;;
11121;SDS011;5615;49.304;10.576;2024-03-22T15:00:50;5.85;;;4.97;;
11121;SDS011;5615;49.304;10.576;2024-03-22T15:03:18;6.75;;;5.00;;
11121;SDS011;5615;49.304;10.576;2024-03-22T15:05:43;6.30;;;4.97;;
11121;SDS011;5615;49.304;10.576;2024-03-22T15:08:10;6.30;;;4.70;;
11121;SDS011;5615;49.304;10.576;2024-03-22T15:10:37;6.18;;;5.13;;
11121;SDS011;5615;49.304;10.576;2024-03-22T15:13:04;5.50;;;5.00;;
11121;SDS011;5615;49.304;10.576;2024-03-22T15:15:31;6.20;;;5.20;;
11121;SDS011;5615;49.304;10.576;2024-03-22T15:17:58;7.80;;;4.95;;